createdAt,value
2022-12-17T00:00:43.627Z,32.3
2022-12-17T00:01:56.615Z,33.2
2022-12-17T00:03:09.184Z,31.4
2022-12-17T00:04:21.366Z,32.4
2022-12-17T00:05:33.511Z,32.3
2022-12-17T00:06:45.850Z,33.9
2022-12-17T00:07:58.772Z,32.4
2022-12-17T00:09:11.230Z,31.9
2022-12-17T00:10:23.486Z,34.7
2022-12-17T00:11:35.608Z,34.1
2022-12-17T00:12:47.750Z,33
2022-12-17T00:14:00.046Z,32.5
2022-12-17T00:15:12.219Z,32.4
2022-12-17T00:16:24.569Z,31.9
2022-12-17T00:17:36.810Z,33.2
2022-12-17T00:18:49.298Z,32.5
2022-12-17T00:20:01.798Z,34
2022-12-17T00:21:14.300Z,32.6
2022-12-17T00:22:26.506Z,34.4
2022-12-17T00:23:39.076Z,34.7
2022-12-17T00:24:50.827Z,32.8
2022-12-17T00:26:03.142Z,35.9
2022-12-17T00:27:15.311Z,34.1
2022-12-17T00:28:27.622Z,35.5
2022-12-17T00:29:39.942Z,34.4
2022-12-17T00:30:51.962Z,34.9
2022-12-17T00:32:05.474Z,38.4
2022-12-17T00:33:17.466Z,37.4
2022-12-17T00:34:29.667Z,36.3
2022-12-17T00:35:41.855Z,36.2
2022-12-17T00:36:54.973Z,35.3
2022-12-17T00:38:08.866Z,36.9
2022-12-17T00:39:21.137Z,37.3
2022-12-17T00:40:33.305Z,36.1
2022-12-17T00:41:45.495Z,34.8
2022-12-17T00:43:00.710Z,34.9
2022-12-17T00:44:13.985Z,35.9
2022-12-17T00:45:26.202Z,36.6
2022-12-17T00:46:39.299Z,36.6
2022-12-17T00:47:46.581Z,38.3
2022-12-17T00:48:58.846Z,36.5
2022-12-17T00:50:10.982Z,36.8
2022-12-17T00:51:23.294Z,36.8
2022-12-17T00:52:35.503Z,36.4
2022-12-17T00:53:47.610Z,36.8
2022-12-17T00:55:00.072Z,35.8
2022-12-17T00:56:12.535Z,36.5
2022-12-17T00:57:25.011Z,38.1
2022-12-17T00:58:37.446Z,37
2022-12-17T00:59:49.662Z,36.9
2022-12-17T01:01:02.064Z,34.8
2022-12-17T01:02:14.164Z,35.3
2022-12-17T01:03:27.674Z,36.3
2022-12-17T01:04:40.022Z,36.1
2022-12-17T01:05:52.218Z,35.9
2022-12-17T01:07:04.673Z,35.5
2022-12-17T01:08:16.710Z,34
2022-12-17T01:09:29.133Z,34
2022-12-17T01:10:41.710Z,36.6
2022-12-17T01:11:56.459Z,36.8
2022-12-17T01:13:06.943Z,36.7
2022-12-17T01:14:19.187Z,35.2
2022-12-17T01:15:31.491Z,36.5
2022-12-17T01:16:43.679Z,36.2
2022-12-17T01:17:56.170Z,34.8
2022-12-17T01:19:08.095Z,35.6
2022-12-17T01:20:20.558Z,36.6
2022-12-17T01:21:32.989Z,36.2
2022-12-17T01:22:45.450Z,35.9
2022-12-17T01:23:57.871Z,35.5
2022-12-17T01:25:10.122Z,37
2022-12-17T01:26:22.395Z,36
2022-12-17T01:27:34.539Z,35.5
2022-12-17T01:28:47.594Z,37.1
2022-12-17T01:30:00.009Z,39.7
2022-12-17T01:31:13.153Z,41.3
2022-12-17T01:32:25.403Z,42.5
2022-12-17T01:33:38.092Z,40.1
2022-12-17T01:34:50.370Z,39.7
2022-12-17T01:36:02.555Z,39.2
2022-12-17T01:37:14.878Z,38.3
2022-12-17T01:38:27.039Z,37.3
2022-12-17T01:39:39.204Z,35.9
2022-12-17T01:40:51.365Z,37.3
2022-12-17T01:42:03.487Z,36.3
2022-12-17T01:43:15.770Z,37.1
2022-12-17T01:44:36.371Z,34.3
2022-12-17T01:45:51.571Z,36.7
2022-12-17T01:47:04.107Z,36.1
2022-12-17T01:48:16.283Z,36.4
2022-12-17T01:49:28.431Z,36.6
2022-12-17T01:50:40.612Z,36
2022-12-17T01:51:53.971Z,33.7
2022-12-17T01:53:06.445Z,35.9
2022-12-17T01:54:18.877Z,36.7
2022-12-17T01:55:30.985Z,36.9
2022-12-17T01:56:43.267Z,35.5
2022-12-17T01:57:56.537Z,35.9
2022-12-17T01:59:08.666Z,34.2
2022-12-17T02:00:20.930Z,34.9
2022-12-17T02:01:33.214Z,34.5
2022-12-17T02:02:45.460Z,35.6
2022-12-17T02:03:57.590Z,35.6
2022-12-17T02:05:09.798Z,32.9
2022-12-17T02:06:22.039Z,34.3
2022-12-17T02:07:34.259Z,34.9
2022-12-17T02:08:51.514Z,34.3
2022-12-17T02:10:08.866Z,33.3
2022-12-17T02:11:29.115Z,33.7
2022-12-17T02:12:48.994Z,35.2
2022-12-17T02:14:01.272Z,33.4
2022-12-17T02:15:21.761Z,35
2022-12-17T02:16:33.826Z,36.1
2022-12-17T02:17:46.048Z,34.4
2022-12-17T02:18:58.238Z,36.2
2022-12-17T02:20:20.650Z,37.7
2022-12-17T02:21:41.274Z,36.2
2022-12-17T02:22:53.709Z,35.9
2022-12-17T02:24:12.106Z,36.3
2022-12-17T02:25:30.226Z,36.7
2022-12-17T02:26:46.009Z,37.1
2022-12-17T02:27:58.441Z,36.7
2022-12-17T02:29:10.594Z,36.8
2022-12-17T02:30:22.837Z,35.7
2022-12-17T02:31:35.057Z,36.7
2022-12-17T02:32:47.186Z,36.3
2022-12-17T02:33:59.405Z,34.9
2022-12-17T02:35:12.182Z,35.3
2022-12-17T02:36:29.413Z,35.9
2022-12-17T02:37:41.699Z,36.9
2022-12-17T02:38:53.842Z,36.2
2022-12-17T02:40:06.111Z,35.7
2022-12-17T02:41:18.641Z,37.1
2022-12-17T02:42:30.929Z,35.1
2022-12-17T02:43:43.133Z,35.7
2022-12-17T02:44:55.406Z,34.9
2022-12-17T02:46:07.750Z,35.9
2022-12-17T02:47:19.914Z,34.1
2022-12-17T02:48:31.982Z,35
2022-12-17T02:49:44.166Z,36.1
2022-12-17T02:50:56.390Z,36
2022-12-17T02:52:08.629Z,35.6
2022-12-17T02:53:21.058Z,37.2
2022-12-17T02:54:34.297Z,37.2
2022-12-17T02:55:46.730Z,36.5
2022-12-17T02:56:59.115Z,35.9
2022-12-17T02:58:11.209Z,36.3
2022-12-17T02:59:23.529Z,36.6
2022-12-17T03:00:36.022Z,36
2022-12-17T03:01:48.648Z,35
2022-12-17T03:03:02.165Z,37.1
2022-12-17T03:04:14.413Z,36.1
2022-12-17T03:05:54.408Z,37.4
2022-12-17T03:06:39.382Z,36.9
2022-12-17T03:07:51.870Z,36.4
2022-12-17T03:09:04.205Z,36.4
2022-12-17T03:10:16.547Z,37.9
2022-12-17T03:11:28.938Z,39.2
2022-12-17T03:12:41.197Z,35.7
2022-12-17T03:13:54.390Z,35.4
2022-12-17T03:15:06.833Z,36.3
2022-12-17T03:16:19.047Z,36.4
2022-12-17T03:17:31.055Z,36.4
2022-12-17T03:18:43.269Z,37
2022-12-17T03:19:55.602Z,35.4
2022-12-17T03:21:08.350Z,34.3
2022-12-17T03:22:20.562Z,35
2022-12-17T03:23:32.830Z,36.2
2022-12-17T03:24:44.864Z,37.1
2022-12-17T03:25:57.093Z,36.7
2022-12-17T03:27:09.342Z,36.2
2022-12-17T03:28:21.742Z,37.1
2022-12-17T03:29:34.122Z,34.7
2022-12-17T03:30:49.019Z,36.8
2022-12-17T03:32:01.138Z,36.7
2022-12-17T03:33:13.726Z,37.7
2022-12-17T03:34:27.273Z,36.3
2022-12-17T03:35:39.305Z,36.8
2022-12-17T03:36:51.521Z,35.7
2022-12-17T03:38:04.083Z,36.3
2022-12-17T03:39:16.466Z,36.7
2022-12-17T03:40:28.685Z,36.7
2022-12-17T03:41:40.997Z,36.4
2022-12-17T03:42:53.118Z,35.6
2022-12-17T03:44:11.414Z,37.7
2022-12-17T03:45:23.553Z,35.5
2022-12-17T03:46:35.935Z,36.9
2022-12-17T03:47:48.237Z,35.9
2022-12-17T03:49:08.497Z,36.8
2022-12-17T03:50:20.839Z,35.1
2022-12-17T03:51:32.853Z,38.7
2022-12-17T03:52:45.062Z,38.7
2022-12-17T03:53:57.318Z,38.7
2022-12-17T03:55:09.721Z,40.7
2022-12-17T03:56:21.838Z,39.1
2022-12-17T03:57:34.014Z,40.6
2022-12-17T03:58:46.140Z,40.7
2022-12-17T03:59:58.368Z,42.2
2022-12-17T04:01:11.343Z,43
2022-12-17T04:02:23.485Z,43.5
2022-12-17T04:03:33.798Z,44.1
2022-12-17T04:04:45.574Z,43.7
2022-12-17T04:05:57.838Z,43.3
2022-12-17T04:07:10.058Z,45
2022-12-17T04:08:22.301Z,45.3
2022-12-17T04:09:34.809Z,45.3
2022-12-17T04:10:47.461Z,44.6
2022-12-17T04:11:59.849Z,46.2
2022-12-17T04:13:15.897Z,43.9
2022-12-17T04:14:28.713Z,44.4
2022-12-17T04:15:41.090Z,43.4
2022-12-17T04:16:53.279Z,46.4
2022-12-17T04:18:05.316Z,47
2022-12-17T04:19:17.849Z,46.1
2022-12-17T04:20:30.344Z,48
2022-12-17T04:21:42.542Z,46.8
2022-12-17T04:22:55.091Z,44.8
2022-12-17T04:24:07.529Z,44.8
2022-12-17T04:25:19.794Z,48.1
2022-12-17T04:26:31.920Z,47.3
2022-12-17T04:27:44.148Z,45.9
2022-12-17T04:28:56.385Z,48.6
2022-12-17T04:30:08.645Z,47.3
2022-12-17T04:31:21.026Z,48.7
2022-12-17T04:32:35.321Z,46.9
2022-12-17T04:33:46.700Z,46.8
2022-12-17T04:34:58.930Z,48.1
2022-12-17T04:36:11.213Z,45.1
2022-12-17T04:37:23.405Z,47
2022-12-17T04:38:35.896Z,47.3
2022-12-17T04:39:48.276Z,48.1
2022-12-17T04:41:00.513Z,45.5
2022-12-17T04:42:12.841Z,47.9
2022-12-17T04:43:25.081Z,47.9
2022-12-17T04:44:37.114Z,45.6
2022-12-17T04:45:49.344Z,49.1
2022-12-17T04:47:01.478Z,48.2
2022-12-17T04:48:13.786Z,48.1
2022-12-17T04:49:25.918Z,45.9
2022-12-17T04:50:38.184Z,47.3
2022-12-17T04:51:50.345Z,47.1
2022-12-17T04:53:02.625Z,45.6
2022-12-17T04:54:14.813Z,47.5
2022-12-17T04:55:26.910Z,47.9
2022-12-17T04:56:39.186Z,48
2022-12-17T04:57:51.372Z,46.7
2022-12-17T04:59:06.712Z,48.5
2022-12-17T05:00:19.209Z,45.4
2022-12-17T05:01:31.650Z,46
2022-12-17T05:02:44.099Z,46.8
2022-12-17T05:03:56.064Z,46.5
2022-12-17T05:05:08.264Z,47.3
2022-12-17T05:06:20.943Z,45.8
2022-12-17T05:07:33.313Z,45.1
2022-12-17T05:08:45.325Z,47.8
2022-12-17T05:09:57.524Z,45.9
2022-12-17T05:11:09.761Z,46.6
2022-12-17T05:12:21.997Z,46.2
2022-12-17T05:13:34.862Z,46.9
2022-12-17T05:14:46.841Z,46.3
2022-12-17T05:15:59.142Z,47.8
2022-12-17T05:17:11.196Z,47.5
2022-12-17T05:18:23.886Z,48.4
2022-12-17T05:19:36.133Z,48.4
2022-12-17T05:20:48.581Z,48.3
2022-12-17T05:22:00.585Z,47.6
2022-12-17T05:23:12.753Z,47.4
2022-12-17T05:24:25.725Z,48.2
2022-12-17T05:25:38.544Z,45.9
2022-12-17T05:26:50.869Z,47.4
2022-12-17T05:28:03.574Z,48.5
2022-12-17T05:29:16.299Z,48.6
2022-12-17T05:30:28.007Z,46.4
2022-12-17T05:31:43.313Z,49.2
2022-12-17T05:32:55.545Z,46.2
2022-12-17T05:34:07.728Z,49.7
2022-12-17T05:35:21.149Z,49.1
2022-12-17T05:36:33.602Z,49.7
2022-12-17T05:37:46.097Z,48.4
2022-12-17T05:38:58.105Z,48.4
2022-12-17T05:40:12.636Z,48
2022-12-17T05:41:22.440Z,45.5
2022-12-17T05:42:34.568Z,45.3
2022-12-17T05:43:46.832Z,46.7
2022-12-17T05:44:59.090Z,46.3
2022-12-17T05:46:11.554Z,46.5
2022-12-17T05:47:23.563Z,47.8
2022-12-17T05:48:35.683Z,46.7
2022-12-17T05:49:47.868Z,46.3
2022-12-17T05:51:00.097Z,46.6
2022-12-17T05:52:13.416Z,45.5
2022-12-17T05:53:25.575Z,47.5
2022-12-17T05:54:37.736Z,48.6
2022-12-17T05:55:49.952Z,45.2
2022-12-17T05:57:02.200Z,48.5
2022-12-17T05:58:14.581Z,46.3
2022-12-17T05:59:27.066Z,48.9
2022-12-17T06:00:39.219Z,46.8
2022-12-17T06:01:51.647Z,47.5
2022-12-17T06:03:03.784Z,47.4
2022-12-17T06:04:16.934Z,47.9
2022-12-17T06:05:29.092Z,49
2022-12-17T06:06:41.264Z,47
2022-12-17T06:07:53.489Z,45.7
2022-12-17T06:09:08.456Z,47.6
2022-12-17T06:10:20.636Z,48
2022-12-17T06:11:32.661Z,48.1
2022-12-17T06:12:44.889Z,49.1
2022-12-17T06:13:59.920Z,48.4
2022-12-17T06:15:12.065Z,49.3
2022-12-17T06:16:24.222Z,45.4
2022-12-17T06:17:36.306Z,46.6
2022-12-17T06:18:56.653Z,46.9
2022-12-17T06:20:08.882Z,47.8
2022-12-17T06:21:21.038Z,46.5
2022-12-17T06:22:33.281Z,47.3
2022-12-17T06:23:45.521Z,45.4
2022-12-17T06:24:58.028Z,43.5
2022-12-17T06:26:10.652Z,46.5
2022-12-17T06:27:22.736Z,47.3
2022-12-17T06:28:36.160Z,47.2
2022-12-17T06:29:48.632Z,45.1
2022-12-17T06:31:00.909Z,45.9
2022-12-17T06:32:12.992Z,45.6
2022-12-17T06:33:25.342Z,46.8
2022-12-17T06:34:37.366Z,48.7
2022-12-17T06:35:49.956Z,48.1
2022-12-17T06:37:02.311Z,45.8
2022-12-17T06:38:14.628Z,46.2
2022-12-17T06:39:26.927Z,48.3
2022-12-17T06:40:38.960Z,47.6
2022-12-17T06:41:51.184Z,45.7
2022-12-17T06:43:03.401Z,48.9
2022-12-17T06:44:15.572Z,49.9
2022-12-17T06:45:25.911Z,49.9
2022-12-17T06:46:39.631Z,45.2
2022-12-17T06:47:51.900Z,48.7
2022-12-17T06:49:04.100Z,46.2
2022-12-17T06:50:16.177Z,47.6
2022-12-17T06:51:28.330Z,50.4
2022-12-17T06:52:40.504Z,49.6
2022-12-17T06:53:52.724Z,48.3
2022-12-17T06:55:05.740Z,49.3
2022-12-17T06:56:18.207Z,46.9
2022-12-17T06:57:30.347Z,47
2022-12-17T06:58:42.568Z,47
2022-12-17T06:59:54.864Z,49
2022-12-17T07:01:07.076Z,47.6
2022-12-17T07:02:19.727Z,49
2022-12-17T07:03:31.882Z,49.3
2022-12-17T07:04:44.423Z,49.6
2022-12-17T07:05:56.819Z,49.3
2022-12-17T07:07:09.048Z,46.8
2022-12-17T07:08:21.256Z,48
2022-12-17T07:09:33.380Z,49.7
2022-12-17T07:10:45.628Z,47.9
2022-12-17T07:11:57.968Z,45.3
2022-12-17T07:13:10.373Z,48.8
2022-12-17T07:14:22.905Z,47.8
2022-12-17T07:15:35.032Z,47
2022-12-17T07:16:47.983Z,48.6
2022-12-17T07:18:00.548Z,50.5
2022-12-17T07:19:12.928Z,49.6
2022-12-17T07:20:25.021Z,47.8
2022-12-17T07:21:37.141Z,49.3
2022-12-17T07:22:49.338Z,48.8
2022-12-17T07:24:01.523Z,50
2022-12-17T07:25:13.864Z,49.4
2022-12-17T07:26:25.973Z,48
2022-12-17T07:27:39.100Z,47.5
2022-12-17T07:28:56.520Z,46.4
2022-12-17T07:30:09.032Z,48.8
2022-12-17T07:31:21.524Z,49.5
2022-12-17T07:32:33.581Z,47.6
2022-12-17T07:33:45.976Z,49.8
2022-12-17T07:34:58.144Z,49.2
2022-12-17T07:36:10.384Z,48.3
2022-12-17T07:37:23.465Z,47.8
2022-12-17T07:38:35.849Z,49.7
2022-12-17T07:39:48.132Z,50.7
2022-12-17T07:41:00.296Z,57.5
2022-12-17T07:42:12.376Z,56.6
2022-12-17T07:43:24.773Z,63.9
2022-12-17T07:44:37.328Z,85.2
2022-12-17T07:45:49.620Z,172.4
2022-12-17T07:47:01.768Z,71.1
2022-12-17T07:48:14.032Z,175.2
2022-12-17T07:49:26.446Z,221.2
2022-12-17T07:50:38.876Z,150.4
2022-12-17T07:51:54.199Z,77.1
2022-12-17T07:53:06.291Z,99.6
2022-12-17T07:54:18.614Z,76.3
2022-12-17T07:55:30.945Z,66.7
2022-12-17T07:56:43.228Z,68.3
2022-12-17T07:57:55.692Z,74.2
2022-12-17T07:59:08.821Z,61.9
2022-12-17T08:00:21.174Z,63.5
2022-12-17T08:01:33.646Z,74
2022-12-17T08:02:45.935Z,59.7
2022-12-17T08:04:00.375Z,66
2022-12-17T08:05:12.363Z,70
2022-12-17T08:06:24.837Z,55.4
2022-12-17T08:07:38.826Z,61.8
2022-12-17T08:08:52.051Z,54.2
2022-12-17T08:10:04.519Z,65.1
2022-12-17T08:11:16.764Z,57.2
2022-12-17T08:12:28.977Z,56.3
2022-12-17T08:13:41.076Z,56.7
2022-12-17T08:14:53.379Z,54
2022-12-17T08:16:05.737Z,59.5
2022-12-17T08:17:18.419Z,60.1
2022-12-17T08:18:30.520Z,56.8
2022-12-17T08:19:42.768Z,54.3
2022-12-17T08:20:54.975Z,55.9
2022-12-17T08:22:07.169Z,54.8
2022-12-17T08:23:19.481Z,53.6
2022-12-17T08:24:32.112Z,54.6
2022-12-17T08:25:45.511Z,52.2
2022-12-17T08:26:57.840Z,54.6
2022-12-17T08:28:11.268Z,54.4
2022-12-17T08:29:22.668Z,54.9
2022-12-17T08:30:35.217Z,55.5
2022-12-17T08:31:47.423Z,53.4
2022-12-17T08:32:59.600Z,60.7
2022-12-17T08:34:12.791Z,57.9
2022-12-17T08:35:25.269Z,55.4
2022-12-17T08:36:37.719Z,53.7
2022-12-17T08:37:49.909Z,58.1
2022-12-17T08:39:07.487Z,60
2022-12-17T08:40:19.803Z,73.2
2022-12-17T08:41:32.184Z,57
2022-12-17T08:42:44.412Z,60.2
2022-12-17T08:43:59.403Z,57.9
2022-12-17T08:45:12.346Z,61.7
2022-12-17T08:46:24.702Z,61.2
2022-12-17T08:47:37.187Z,57.4
2022-12-17T08:48:49.611Z,53.3
2022-12-17T08:50:01.931Z,52.6
2022-12-17T08:51:14.005Z,53.7
2022-12-17T08:52:26.303Z,51.8
2022-12-17T08:53:39.570Z,57.2
2022-12-17T08:54:51.684Z,58.8
2022-12-17T08:56:04.076Z,51.8
2022-12-17T08:57:26.975Z,51.8
2022-12-17T08:58:28.268Z,54
2022-12-17T08:59:40.599Z,53.6
2022-12-17T09:00:52.895Z,55.9
2022-12-17T09:02:05.319Z,67.7
2022-12-17T09:03:17.324Z,71.5
2022-12-17T09:04:29.330Z,64.2
2022-12-17T09:05:41.629Z,56.9
2022-12-17T09:06:53.855Z,57
2022-12-17T09:08:06.309Z,56.7
2022-12-17T09:09:18.367Z,52.6
2022-12-17T09:10:30.450Z,51.2
2022-12-17T09:11:42.712Z,49.2
2022-12-17T09:12:58.618Z,51.7
2022-12-17T09:14:07.823Z,56.5
2022-12-17T09:15:19.867Z,53.6
2022-12-17T09:16:32.151Z,59.7
2022-12-17T09:17:44.535Z,54.5
2022-12-17T09:18:56.911Z,54.4
2022-12-17T09:20:09.339Z,55.6
2022-12-17T09:21:21.508Z,54.2
2022-12-17T09:22:33.541Z,52.5
2022-12-17T09:23:46.360Z,54
2022-12-17T09:24:58.495Z,53.3
2022-12-17T09:26:11.251Z,55.2
2022-12-17T09:27:23.905Z,54.8
2022-12-17T09:28:36.123Z,63.9
2022-12-17T09:29:48.412Z,56.4
2022-12-17T09:31:00.763Z,52.3
2022-12-17T09:32:10.832Z,51.8
2022-12-17T09:33:23.227Z,53.5
2022-12-17T09:34:37.736Z,51
2022-12-17T09:35:49.995Z,53
2022-12-17T09:37:02.191Z,56.8
2022-12-17T09:38:14.884Z,56.9
2022-12-17T09:39:27.687Z,56.9
2022-12-17T09:40:39.976Z,60.5
2022-12-17T09:41:52.122Z,58.3
2022-12-17T09:43:14.534Z,66
2022-12-17T09:44:29.879Z,63.3
2022-12-17T09:45:41.995Z,60.8
2022-12-17T09:46:54.252Z,57.5
2022-12-17T09:48:09.559Z,63.1
2022-12-17T09:49:29.791Z,60.4
2022-12-17T09:50:42.151Z,59.3
2022-12-17T09:51:54.523Z,59.2
2022-12-17T09:53:07.279Z,60.2
2022-12-17T09:54:22.295Z,66.5
2022-12-17T09:55:41.357Z,73.9
2022-12-17T09:56:54.579Z,71.4
2022-12-17T09:58:07.165Z,65.5
2022-12-17T09:59:24.395Z,62.8
2022-12-17T10:00:37.394Z,62.6
2022-12-17T10:01:49.948Z,63.7
2022-12-17T10:03:02.374Z,60.4
2022-12-17T10:04:19.303Z,61.6
2022-12-17T10:05:42.086Z,59.4
2022-12-17T10:06:54.304Z,61.8
2022-12-17T10:08:06.520Z,57.4
2022-12-17T10:09:18.863Z,62.1
2022-12-17T10:10:30.900Z,58.7
2022-12-17T10:11:45.667Z,58.1
2022-12-17T10:12:58.811Z,62.9
2022-12-17T10:14:11.346Z,68.5
2022-12-17T10:15:23.611Z,74.5
2022-12-17T10:16:36.011Z,58.7
2022-12-17T10:17:48.379Z,72
2022-12-17T10:19:00.887Z,72
2022-12-17T10:20:18.478Z,60.4
2022-12-17T10:21:36.187Z,65.2
2022-12-17T10:22:48.451Z,79.4
2022-12-17T10:24:00.710Z,87.9
2022-12-17T10:25:13.021Z,74.6
2022-12-17T10:26:25.383Z,74.1
2022-12-17T10:27:37.884Z,64.2
2022-12-17T10:28:50.058Z,71.5
2022-12-17T10:30:07.402Z,71.1
2022-12-17T10:31:19.858Z,72.5
2022-12-17T10:32:32.183Z,61.8
2022-12-17T10:33:44.399Z,83.2
2022-12-17T10:34:59.346Z,76.7
2022-12-17T10:36:11.558Z,74.1
2022-12-17T10:37:23.799Z,66.8
2022-12-17T10:38:35.811Z,66.4
2022-12-17T10:39:48.011Z,59.5
2022-12-17T10:41:00.310Z,59.9
2022-12-17T10:42:22.926Z,58.3
2022-12-17T10:43:36.105Z,62.2
2022-12-17T10:44:48.111Z,64.3
2022-12-17T10:46:00.493Z,68.4
2022-12-17T10:47:12.670Z,64.5
2022-12-17T10:48:28.074Z,70.7
2022-12-17T10:49:40.381Z,61.5
2022-12-17T10:51:00.494Z,63
2022-12-17T10:52:23.042Z,63.8
2022-12-17T10:53:35.627Z,62.3
2022-12-17T10:54:49.560Z,65.5
2022-12-17T10:55:59.840Z,58.8
2022-12-17T10:57:12.119Z,60.8
2022-12-17T10:58:30.346Z,57.2
2022-12-17T10:59:47.666Z,59.5
2022-12-17T11:00:59.926Z,62.8
2022-12-17T11:02:15.379Z,95.3
2022-12-17T11:03:30.444Z,84.4
2022-12-17T11:04:42.530Z,107.1
2022-12-17T11:05:59.326Z,80.3
2022-12-17T11:07:07.022Z,68.5
2022-12-17T11:08:24.622Z,63.5
2022-12-17T11:09:36.870Z,69.4
2022-12-17T11:10:49.138Z,69.7
2022-12-17T11:12:05.723Z,68.2
2022-12-17T11:13:13.685Z,59.2
2022-12-17T11:14:33.862Z,60.3
2022-12-17T11:15:46.230Z,63.1
2022-12-17T11:16:58.381Z,60.2
2022-12-17T11:18:11.717Z,54
2022-12-17T11:19:27.983Z,56.9
2022-12-17T11:20:45.582Z,55.9
2022-12-17T11:22:00.365Z,55.6
2022-12-17T11:23:20.378Z,60.5
2022-12-17T11:24:32.363Z,56.1
2022-12-17T11:25:47.298Z,59.3
2022-12-17T11:26:59.497Z,59
2022-12-17T11:28:11.723Z,60.6
2022-12-17T11:29:27.127Z,60.3
2022-12-17T11:30:39.567Z,60.7
2022-12-17T11:31:57.495Z,59
2022-12-17T11:33:14.899Z,60
2022-12-17T11:34:32.462Z,58.6
2022-12-17T11:35:53.275Z,61.1
2022-12-17T11:37:05.766Z,61.8
2022-12-17T11:38:21.223Z,65.2
2022-12-17T11:39:41.842Z,64.9
2022-12-17T11:40:59.134Z,93.9
2022-12-17T11:42:11.668Z,201.8
2022-12-17T11:43:28.982Z,93.6
2022-12-17T11:44:49.646Z,68
2022-12-17T11:46:07.937Z,220.2
2022-12-17T11:47:30.550Z,167.5
2022-12-17T11:48:47.984Z,124.1
2022-12-17T11:50:05.353Z,170.4
2022-12-17T11:51:22.710Z,278
2022-12-17T11:52:40.351Z,172.2
2022-12-17T11:53:55.121Z,134.9
2022-12-17T11:55:17.666Z,128.9
2022-12-17T11:56:35.305Z,89.2
2022-12-17T11:57:52.630Z,102.6
2022-12-17T11:59:04.969Z,84.3
2022-12-17T12:00:25.380Z,73
2022-12-17T12:01:39.927Z,66
2022-12-17T12:02:55.668Z,65.5
2022-12-17T12:04:11.566Z,70.2
2022-12-17T12:05:28.686Z,71.1
2022-12-17T12:06:46.046Z,68.8
2022-12-17T12:08:05.993Z,89.4
2022-12-17T12:09:26.394Z,76.8
2022-12-17T12:10:46.670Z,75.7
2022-12-17T12:12:02.017Z,69.8
2022-12-17T12:13:24.430Z,66.6
2022-12-17T12:14:47.191Z,71.2
2022-12-17T12:16:07.635Z,72.4
2022-12-17T12:17:22.930Z,73.6
2022-12-17T12:18:45.570Z,77.3
2022-12-17T12:20:03.865Z,74.3
2022-12-17T12:21:20.957Z,69.1
2022-12-17T12:22:41.066Z,70.3
2022-12-17T12:23:58.622Z,69.6
2022-12-17T12:25:10.754Z,78
2022-12-17T12:26:30.842Z,73
2022-12-17T12:27:48.302Z,71
2022-12-17T12:29:05.915Z,72.9
2022-12-17T12:30:20.991Z,74.5
2022-12-17T12:31:33.026Z,78.6
2022-12-17T12:32:55.407Z,76.3
2022-12-17T12:34:12.826Z,72.9
2022-12-17T12:35:25.063Z,71.9
2022-12-17T12:36:37.058Z,72
2022-12-17T12:37:49.240Z,76.9
2022-12-17T12:39:01.625Z,68.6
2022-12-17T12:40:13.830Z,68.9
2022-12-17T12:41:31.550Z,73.5
2022-12-17T12:42:53.954Z,70.8
2022-12-17T12:44:09.385Z,70.7
2022-12-17T12:45:32.094Z,74.8
2022-12-17T12:46:54.516Z,73.3
2022-12-17T12:48:06.798Z,70.4
2022-12-17T12:49:29.488Z,68.9
2022-12-17T12:50:42.696Z,67.5
2022-12-17T12:51:57.647Z,68
2022-12-17T12:53:09.818Z,67.9
2022-12-17T12:54:22.199Z,70.4
2022-12-17T12:55:34.866Z,68.1
2022-12-17T12:56:46.875Z,68.8
2022-12-17T12:57:59.158Z,66.6
2022-12-17T12:59:21.675Z,63
2022-12-17T13:00:34.182Z,63.2
2022-12-17T13:01:53.023Z,64
2022-12-17T13:03:04.965Z,65
2022-12-17T13:04:17.017Z,60.1
2022-12-17T13:05:31.910Z,61.1
2022-12-17T13:06:38.821Z,62.7
2022-12-17T13:07:53.635Z,59.3
2022-12-17T13:09:08.882Z,61.5
2022-12-17T13:10:19.150Z,62.2
2022-12-17T13:11:26.322Z,59
2022-12-17T13:12:33.333Z,58.9
2022-12-17T13:13:43.406Z,57.6
2022-12-17T13:14:50.691Z,57.5
2022-12-17T13:16:06.099Z,52.7
2022-12-17T13:17:23.286Z,53.7
2022-12-17T13:18:35.801Z,54.6
2022-12-17T13:19:44.986Z,55.5
2022-12-17T13:20:59.845Z,53.7
2022-12-17T13:22:23.571Z,54.3
2022-12-17T13:23:24.423Z,56.4
2022-12-17T13:24:37.031Z,52.8
2022-12-17T13:25:46.658Z,57
2022-12-17T13:26:53.885Z,53
2022-12-17T13:28:00.922Z,53.6
2022-12-17T13:29:08.195Z,51
2022-12-17T13:30:26.397Z,53.4
2022-12-17T13:31:37.294Z,51
2022-12-17T13:32:44.311Z,49.8
2022-12-17T13:34:01.462Z,52
2022-12-17T13:35:11.277Z,49.7
2022-12-17T13:36:28.638Z,51.2
2022-12-17T13:37:46.278Z,52.5
2022-12-17T13:39:01.077Z,52.4
2022-12-17T13:40:13.370Z,50.9
2022-12-17T13:41:28.642Z,51.8
2022-12-17T13:42:35.516Z,49.5
2022-12-17T13:43:42.723Z,48.8
2022-12-17T13:44:57.550Z,50.5
2022-12-17T13:46:04.731Z,56.2
2022-12-17T13:47:12.089Z,57.5
2022-12-17T13:48:21.637Z,61.1
2022-12-17T13:49:28.833Z,109.6
2022-12-17T13:50:36.913Z,61.1
2022-12-17T13:51:43.370Z,80.9
2022-12-17T13:52:50.488Z,101.4
2022-12-17T13:53:57.816Z,78.5
2022-12-17T13:55:04.750Z,67.4
2022-12-17T13:56:11.958Z,63
2022-12-17T13:57:19.126Z,55.2
2022-12-17T13:58:26.247Z,65.4
2022-12-17T13:59:33.175Z,76.4
2022-12-17T14:00:40.269Z,52.6
2022-12-17T14:01:47.562Z,63.4
2022-12-17T14:02:54.848Z,65.7
2022-12-17T14:04:06.585Z,57.5
2022-12-17T14:05:09.062Z,53.7
2022-12-17T14:06:24.325Z,50.4
2022-12-17T14:07:31.243Z,50.7
2022-12-17T14:08:38.884Z,49.4
2022-12-17T14:09:45.534Z,48.7
2022-12-17T14:10:52.757Z,47.6
2022-12-17T14:12:04.978Z,48.1
2022-12-17T14:13:17.345Z,46.7
2022-12-17T14:14:24.421Z,47.8
2022-12-17T14:15:36.997Z,49.6
2022-12-17T14:16:49.101Z,46.2
2022-12-17T14:17:51.198Z,45.4
2022-12-17T14:18:58.357Z,47.8
2022-12-17T14:20:05.615Z,44.6
2022-12-17T14:21:15.232Z,46.8
2022-12-17T14:22:22.575Z,44.2
2022-12-17T14:23:37.949Z,44
2022-12-17T14:24:45.161Z,47
2022-12-17T14:25:52.458Z,45.3
2022-12-17T14:26:59.428Z,42.9
2022-12-17T14:28:06.664Z,45.6
2022-12-17T14:29:24.045Z,47.9
2022-12-17T14:30:30.938Z,45.4
2022-12-17T14:31:40.904Z,48.5
2022-12-17T14:32:47.741Z,50.8
2022-12-17T14:33:54.917Z,49.9
2022-12-17T14:35:04.705Z,51
2022-12-17T14:36:11.858Z,50.7
2022-12-17T14:37:19.081Z,48.4
2022-12-17T14:38:37.805Z,47.2
2022-12-17T14:39:33.749Z,48.7
2022-12-17T14:40:40.712Z,49.7
2022-12-17T14:41:47.906Z,47
2022-12-17T14:43:00.149Z,47.4
2022-12-17T14:44:07.446Z,44.9
2022-12-17T14:45:24.841Z,42.4
2022-12-17T14:46:32.206Z,43.2
2022-12-17T14:47:39.373Z,42.2
2022-12-17T14:48:56.582Z,43
2022-12-17T14:50:06.471Z,44.5
2022-12-17T14:51:13.617Z,44.3
2022-12-17T14:52:31.213Z,45.3
2022-12-17T14:53:43.526Z,44.8
2022-12-17T14:54:50.841Z,57.3
2022-12-17T14:55:57.856Z,102.4
2022-12-17T14:57:04.906Z,62.5
2022-12-17T14:58:13.037Z,77.5
2022-12-17T14:59:20.313Z,79.2
2022-12-17T15:00:30.861Z,133.5
2022-12-17T15:01:37.944Z,111.7
2022-12-17T15:02:45.339Z,158.1
2022-12-17T15:03:55.705Z,98.6
2022-12-17T15:05:02.573Z,224.7
2022-12-17T15:06:09.646Z,218.3
2022-12-17T15:07:18.129Z,116.4
2022-12-17T15:08:27.518Z,131.9
2022-12-17T15:09:37.558Z,149.6
2022-12-17T15:10:44.597Z,156
2022-12-17T15:11:52.766Z,121.5
2022-12-17T15:13:00.059Z,96.5
2022-12-17T15:14:08.193Z,79
2022-12-17T15:15:15.513Z,57.4
2022-12-17T15:16:22.620Z,54.6
2022-12-17T15:17:29.760Z,54.7
2022-12-17T15:18:36.880Z,52
2022-12-17T15:19:43.825Z,49.5
2022-12-17T15:20:51.118Z,53.7
2022-12-17T15:21:58.073Z,51.6
2022-12-17T15:23:05.262Z,50.4
2022-12-17T15:24:18.445Z,51.6
2022-12-17T15:25:26.229Z,49
2022-12-17T15:26:33.137Z,50.4
2022-12-17T15:27:40.288Z,50.6
2022-12-17T15:28:47.749Z,49
2022-12-17T15:29:54.678Z,50.1
2022-12-17T15:31:02.139Z,52
2022-12-17T15:32:09.789Z,51
2022-12-17T15:33:22.317Z,50.2
2022-12-17T15:34:30.274Z,54.1
2022-12-17T15:35:37.226Z,53.9
2022-12-17T15:36:44.486Z,53.4
2022-12-17T15:37:51.629Z,52.6
2022-12-17T15:38:58.825Z,53.5
2022-12-17T15:40:06.049Z,54.5
2022-12-17T15:41:13.194Z,54.8
2022-12-17T15:42:25.439Z,55
2022-12-17T15:43:37.870Z,54.4
2022-12-17T15:44:45.049Z,52.5
2022-12-17T15:45:52.353Z,52.3
2022-12-17T15:46:59.313Z,55.3
2022-12-17T15:48:06.494Z,53.1
2022-12-17T15:49:17.653Z,52.5
2022-12-17T15:50:26.991Z,53.1
2022-12-17T15:51:34.246Z,58.5
2022-12-17T15:52:41.388Z,56.6
2022-12-17T15:53:48.574Z,54.8
2022-12-17T15:54:55.693Z,55.3
2022-12-17T15:56:02.773Z,57.2
2022-12-17T15:57:12.869Z,54.4
2022-12-17T15:58:17.178Z,55
2022-12-17T15:59:24.301Z,51.9
2022-12-17T16:00:31.425Z,60.1
2022-12-17T16:01:38.425Z,58.5
2022-12-17T16:02:45.768Z,65.6
2022-12-17T16:03:53.600Z,58.4
2022-12-17T16:05:00.372Z,57.3
2022-12-17T16:06:07.470Z,61.7
2022-12-17T16:07:14.902Z,56.9
2022-12-17T16:08:22.297Z,62.1
2022-12-17T16:09:29.610Z,69.8
2022-12-17T16:10:36.425Z,77.5